sensor_id;sensor_type;location;lat;lon;timestamp;temperature;humidity
3790;DHT22;1910;49.042;9.028;2022-08-03T00:01:16;19.80;99.90
3790;DHT22;1910;49.042;9.028;2022-08-03T00:03:41;19.80;99.90
3790;DHT22;1910;49.042;9.028;2022-08-03T00:06:07;19.80;99.90
3790;DHT22;1910;49.042;9.028;2022-08-03T00:08:33;19.70;99.90
3790;DHT22;1910;49.042;9.028;2022-08-03T00:10:58;20.10;99.90
3790;DHT22;1910;49.042;9.028;2022-08-03T00:13:24;19.60;99.90
3790;DHT22;1910;49.042;9.028;2022-08-03T00:15:50;19.50;99.90
3790;DHT22;1910;49.042;9.028;2022-08-03T00:18:16;19.50;99.90
3790;DHT22;1910;49.042;9.028;2022-08-03T00:20:42;19.50;99.90
3790;DHT22;1910;49.042;9.028;2022-08-03T00:23:08;19.40;99.90
3790;DHT22;1910;49.042;9.028;2022-08-03T00:25:34;19.30;99.90
3790;DHT22;1910;49.042;9.028;2022-08-03T00:28:01;19.50;99.90
3790;DHT22;1910;49.042;9.028;2022-08-03T00:30:27;19.30;99.90
3790;DHT22;1910;49.042;9.028;2022-08-03T00:32:52;19.40;99.90
3790;DHT22;1910;49.042;9.028;2022-08-03T00:35:18;19.30;99.90
3790;DHT22;1910;49.042;9.028;2022-08-03T00:37:43;19.30;99.90
3790;DHT22;1910;49.042;9.028;2022-08-03T00:40:11;19.40;99.90
3790;DHT22;1910;49.042;9.028;2022-08-03T00:42:57;19.40;99.90
3790;DHT22;1910;49.042;9.028;2022-08-03T00:45:28;19.40;99.90
3790;DHT22;1910;49.042;9.028;2022-08-03T00:47:54;19.40;99.90
3790;DHT22;1910;49.042;9.028;2022-08-03T00:50:21;19.40;99.90
3790;DHT22;1910;49.042;9.028;2022-08-03T00:52:48;19.70;99.90
3790;DHT22;1910;49.042;9.028;2022-08-03T00:55:14;19.40;99.90
3790;DHT22;1910;49.042;9.028;2022-08-03T00:57:42;19.40;99.90
3790;DHT22;1910;49.042;9.028;2022-08-03T01:00:09;19.30;99.90
3790;DHT22;1910;49.042;9.028;2022-08-03T01:02:36;19.20;99.90
3790;DHT22;1910;49.042;9.028;2022-08-03T01:05:02;19.10;99.90
3790;DHT22;1910;49.042;9.028;2022-08-03T01:13:42;18.90;99.90
3790;DHT22;1910;49.042;9.028;2022-08-03T01:16:18;18.90;99.90
3790;DHT22;1910;49.042;9.028;2022-08-03T01:18:57;18.90;99.90
3790;DHT22;1910;49.042;9.028;2022-08-03T01:21:31;18.90;99.90
3790;DHT22;1910;49.042;9.028;2022-08-03T01:29:51;18.90;99.90
3790;DHT22;1910;49.042;9.028;2022-08-03T01:32:27;18.90;99.90
3790;DHT22;1910;49.042;9.028;2022-08-03T01:35:02;18.70;99.90
3790;DHT22;1910;49.042;9.028;2022-08-03T01:37:37;18.60;99.90
3790;DHT22;1910;49.042;9.028;2022-08-03T01:40:05;18.60;99.90
3790;DHT22;1910;49.042;9.028;2022-08-03T01:42:31;18.60;99.90
3790;DHT22;1910;49.042;9.028;2022-08-03T01:44:59;18.60;99.90
3790;DHT22;1910;49.042;9.028;2022-08-03T01:47:26;18.60;99.90
3790;DHT22;1910;49.042;9.028;2022-08-03T01:49:53;18.50;99.90
3790;DHT22;1910;49.042;9.028;2022-08-03T01:52:21;18.40;99.90
3790;DHT22;1910;49.042;9.028;2022-08-03T01:54:50;18.50;99.90
3790;DHT22;1910;49.042;9.028;2022-08-03T01:57:17;18.30;99.90
3790;DHT22;1910;49.042;9.028;2022-08-03T01:59:45;18.30;99.90
3790;DHT22;1910;49.042;9.028;2022-08-03T02:02:13;18.30;99.90
3790;DHT22;1910;49.042;9.028;2022-08-03T02:04:41;19.70;99.90
3790;DHT22;1910;49.042;9.028;2022-08-03T02:07:08;19.50;99.90
3790;DHT22;1910;49.042;9.028;2022-08-03T02:09:38;20.00;99.90
3790;DHT22;1910;49.042;9.028;2022-08-03T02:12:08;17.00;99.90
3790;DHT22;1910;49.042;9.028;2022-08-03T02:14:35;18.90;99.90
3790;DHT22;1910;49.042;9.028;2022-08-03T02:17:01;19.50;99.90
3790;DHT22;1910;49.042;9.028;2022-08-03T02:19:27;18.30;99.90
3790;DHT22;1910;49.042;9.028;2022-08-03T02:21:55;19.10;99.90
3790;DHT22;1910;49.042;9.028;2022-08-03T02:24:22;19.70;99.90
3790;DHT22;1910;49.042;9.028;2022-08-03T02:26:48;18.30;99.90
3790;DHT22;1910;49.042;9.028;2022-08-03T02:29:20;18.30;99.90
3790;DHT22;1910;49.042;9.028;2022-08-03T02:31:48;18.70;99.90
3790;DHT22;1910;49.042;9.028;2022-08-03T02:34:16;18.40;99.90
3790;DHT22;1910;49.042;9.028;2022-08-03T02:36:45;19.60;99.90
3790;DHT22;1910;49.042;9.028;2022-08-03T02:39:12;20.10;99.90
3790;DHT22;1910;49.042;9.028;2022-08-03T02:41:44;19.90;99.90
3790;DHT22;1910;49.042;9.028;2022-08-03T02:44:11;19.60;99.90
3790;DHT22;1910;49.042;9.028;2022-08-03T02:46:40;20.00;99.90
3790;DHT22;1910;49.042;9.028;2022-08-03T02:49:07;18.30;99.90
3790;DHT22;1910;49.042;9.028;2022-08-03T02:51:35;18.40;99.90
3790;DHT22;1910;49.042;9.028;2022-08-03T02:54:02;18.20;99.90
3790;DHT22;1910;49.042;9.028;2022-08-03T02:56:29;18.10;99.90
3790;DHT22;1910;49.042;9.028;2022-08-03T02:58:57;19.50;99.90
3790;DHT22;1910;49.042;9.028;2022-08-03T03:01:24;18.70;99.90
3790;DHT22;1910;49.042;9.028;2022-08-03T03:03:51;19.40;99.90
3790;DHT22;1910;49.042;9.028;2022-08-03T03:06:31;19.60;99.90
3790;DHT22;1910;49.042;9.028;2022-08-03T03:08:58;17.00;99.90
3790;DHT22;1910;49.042;9.028;2022-08-03T03:11:25;17.90;99.90
3790;DHT22;1910;49.042;9.028;2022-08-03T03:13:52;19.50;99.90
3790;DHT22;1910;49.042;9.028;2022-08-03T03:16:18;17.90;99.90
3790;DHT22;1910;49.042;9.028;2022-08-03T03:18:45;16.50;99.90
3790;DHT22;1910;49.042;9.028;2022-08-03T03:21:15;19.40;99.90
3790;DHT22;1910;49.042;9.028;2022-08-03T03:23:41;17.50;99.90
3790;DHT22;1910;49.042;9.028;2022-08-03T03:26:07;17.60;99.90
3790;DHT22;1910;49.042;9.028;2022-08-03T03:28:34;18.90;99.90
3790;DHT22;1910;49.042;9.028;2022-08-03T03:31:04;18.20;99.90
3790;DHT22;1910;49.042;9.028;2022-08-03T03:33:30;18.60;99.90
3790;DHT22;1910;49.042;9.028;2022-08-03T03:35:57;18.10;99.90
3790;DHT22;1910;49.042;9.028;2022-08-03T03:38:23;18.20;99.90
3790;DHT22;1910;49.042;9.028;2022-08-03T03:40:49;17.90;99.90
3790;DHT22;1910;49.042;9.028;2022-08-03T03:43:15;18.80;99.90
3790;DHT22;1910;49.042;9.028;2022-08-03T03:45:43;17.70;99.90
3790;DHT22;1910;49.042;9.028;2022-08-03T03:48:09;17.60;99.90
3790;DHT22;1910;49.042;9.028;2022-08-03T03:50:36;17.50;99.90
3790;DHT22;1910;49.042;9.028;2022-08-03T03:53:03;18.50;99.90
3790;DHT22;1910;49.042;9.028;2022-08-03T03:55:29;18.80;99.90
3790;DHT22;1910;49.042;9.028;2022-08-03T03:57:56;17.40;99.90
3790;DHT22;1910;49.042;9.028;2022-08-03T04:00:25;16.50;99.90
3790;DHT22;1910;49.042;9.028;2022-08-03T04:02:51;17.30;99.90
3790;DHT22;1910;49.042;9.028;2022-08-03T04:05:16;17.40;99.90
3790;DHT22;1910;49.042;9.028;2022-08-03T04:08:15;17.40;99.90
3790;DHT22;1910;49.042;9.028;2022-08-03T04:13:41;17.40;99.90
3790;DHT22;1910;49.042;9.028;2022-08-03T04:16:11;17.50;99.90
3790;DHT22;1910;49.042;9.028;2022-08-03T04:18:41;19.10;99.90
3790;DHT22;1910;49.042;9.028;2022-08-03T04:21:14;17.50;99.90
3790;DHT22;1910;49.042;9.028;2022-08-03T04:23:44;17.60;99.90
3790;DHT22;1910;49.042;9.028;2022-08-03T04:26:12;19.50;99.90
3790;DHT22;1910;49.042;9.028;2022-08-03T04:28:40;17.90;99.90
3790;DHT22;1910;49.042;9.028;2022-08-03T04:31:07;17.90;99.90
3790;DHT22;1910;49.042;9.028;2022-08-03T04:33:36;18.00;99.90
3790;DHT22;1910;49.042;9.028;2022-08-03T04:36:06;18.10;99.90
3790;DHT22;1910;49.042;9.028;2022-08-03T04:38:41;19.90;99.90
3790;DHT22;1910;49.042;9.028;2022-08-03T04:41:09;20.50;99.90
3790;DHT22;1910;49.042;9.028;2022-08-03T04:43:35;21.50;99.90
3790;DHT22;1910;49.042;9.028;2022-08-03T04:46:05;23.30;99.90
3790;DHT22;1910;49.042;9.028;2022-08-03T04:48:31;24.50;99.90
3790;DHT22;1910;49.042;9.028;2022-08-03T04:50:57;26.00;99.90
3790;DHT22;1910;49.042;9.028;2022-08-03T04:53:25;27.40;99.90
3790;DHT22;1910;49.042;9.028;2022-08-03T04:55:50;28.00;98.50
3790;DHT22;1910;49.042;9.028;2022-08-03T04:58:16;29.30;95.40
3790;DHT22;1910;49.042;9.028;2022-08-03T05:00:42;30.50;91.20
3790;DHT22;1910;49.042;9.028;2022-08-03T05:03:18;32.00;87.20
3790;DHT22;1910;49.042;9.028;2022-08-03T05:05:44;34.20;79.00
3790;DHT22;1910;49.042;9.028;2022-08-03T05:08:10;34.60;70.80
3790;DHT22;1910;49.042;9.028;2022-08-03T05:10:37;33.40;65.00
3790;DHT22;1910;49.042;9.028;2022-08-03T05:13:03;34.00;63.20
3790;DHT22;1910;49.042;9.028;2022-08-03T05:15:29;34.00;62.30
3790;DHT22;1910;49.042;9.028;2022-08-03T05:17:55;34.10;61.70
3790;DHT22;1910;49.042;9.028;2022-08-03T05:20:20;35.70;60.60
3790;DHT22;1910;49.042;9.028;2022-08-03T05:22:48;35.50;58.30
3790;DHT22;1910;49.042;9.028;2022-08-03T05:25:13;37.20;56.60
3790;DHT22;1910;49.042;9.028;2022-08-03T05:27:39;37.30;54.50
3790;DHT22;1910;49.042;9.028;2022-08-03T05:30:05;37.60;52.30
3790;DHT22;1910;49.042;9.028;2022-08-03T05:32:31;37.60;51.60
3790;DHT22;1910;49.042;9.028;2022-08-03T05:35:01;37.70;50.50
3790;DHT22;1910;49.042;9.028;2022-08-03T05:37:27;37.60;49.70
3790;DHT22;1910;49.042;9.028;2022-08-03T05:39:53;37.10;49.50
3790;DHT22;1910;49.042;9.028;2022-08-03T05:42:18;37.20;49.90
3790;DHT22;1910;49.042;9.028;2022-08-03T05:44:44;37.90;49.70
3790;DHT22;1910;49.042;9.028;2022-08-03T05:47:09;38.70;48.60
3790;DHT22;1910;49.042;9.028;2022-08-03T05:49:35;39.50;46.70
3790;DHT22;1910;49.042;9.028;2022-08-03T05:52:01;39.40;45.60
3790;DHT22;1910;49.042;9.028;2022-08-03T05:54:27;40.00;45.30
3790;DHT22;1910;49.042;9.028;2022-08-03T05:56:53;40.30;44.80
3790;DHT22;1910;49.042;9.028;2022-08-03T05:59:19;40.20;43.40
3790;DHT22;1910;49.042;9.028;2022-08-03T06:01:46;40.40;44.30
3790;DHT22;1910;49.042;9.028;2022-08-03T06:04:16;41.20;42.70
3790;DHT22;1910;49.042;9.028;2022-08-03T06:06:45;40.80;41.20
3790;DHT22;1910;49.042;9.028;2022-08-03T06:09:12;40.00;42.60
3790;DHT22;1910;49.042;9.028;2022-08-03T06:11:38;40.20;42.50
3790;DHT22;1910;49.042;9.028;2022-08-03T06:14:05;40.00;43.30
3790;DHT22;1910;49.042;9.028;2022-08-03T06:16:31;40.10;42.40
3790;DHT22;1910;49.042;9.028;2022-08-03T06:18:57;40.30;42.10
3790;DHT22;1910;49.042;9.028;2022-08-03T06:21:23;41.70;41.00
3790;DHT22;1910;49.042;9.028;2022-08-03T06:23:49;42.30;40.50
3790;DHT22;1910;49.042;9.028;2022-08-03T06:26:14;43.50;39.60
3790;DHT22;1910;49.042;9.028;2022-08-03T06:28:43;43.30;38.50
3790;DHT22;1910;49.042;9.028;2022-08-03T06:31:12;42.50;38.50
3790;DHT22;1910;49.042;9.028;2022-08-03T06:33:37;42.90;38.50
3790;DHT22;1910;49.042;9.028;2022-08-03T06:36:04;42.90;38.00
3790;DHT22;1910;49.042;9.028;2022-08-03T06:38:30;44.00;38.40
3790;DHT22;1910;49.042;9.028;2022-08-03T06:40:56;45.80;36.20
3790;DHT22;1910;49.042;9.028;2022-08-03T06:43:21;45.00;35.70
3790;DHT22;1910;49.042;9.028;2022-08-03T06:45:47;44.00;35.60
3790;DHT22;1910;49.042;9.028;2022-08-03T06:48:12;43.80;36.60
3790;DHT22;1910;49.042;9.028;2022-08-03T06:50:41;43.20;36.50
3790;DHT22;1910;49.042;9.028;2022-08-03T06:53:07;43.20;37.40
3790;DHT22;1910;49.042;9.028;2022-08-03T06:55:36;43.40;37.10
3790;DHT22;1910;49.042;9.028;2022-08-03T06:58:02;43.00;37.80
3790;DHT22;1910;49.042;9.028;2022-08-03T07:00:28;44.20;37.60
3790;DHT22;1910;49.042;9.028;2022-08-03T07:02:55;45.00;36.70
3790;DHT22;1910;49.042;9.028;2022-08-03T07:05:20;45.20;35.60
3790;DHT22;1910;49.042;9.028;2022-08-03T07:07:47;45.20;36.40
3790;DHT22;1910;49.042;9.028;2022-08-03T07:10:13;45.80;35.80
3790;DHT22;1910;49.042;9.028;2022-08-03T07:12:39;46.90;35.20
3790;DHT22;1910;49.042;9.028;2022-08-03T07:15:06;48.00;34.30
3790;DHT22;1910;49.042;9.028;2022-08-03T07:17:33;47.80;33.00
3790;DHT22;1910;49.042;9.028;2022-08-03T07:20:00;47.00;34.60
3790;DHT22;1910;49.042;9.028;2022-08-03T07:22:26;46.40;34.70
3790;DHT22;1910;49.042;9.028;2022-08-03T07:24:52;45.20;35.10
3790;DHT22;1910;49.042;9.028;2022-08-03T07:27:18;44.60;35.60
3790;DHT22;1910;49.042;9.028;2022-08-03T07:29:43;43.70;37.50
3790;DHT22;1910;49.042;9.028;2022-08-03T07:32:09;42.90;37.60
3790;DHT22;1910;49.042;9.028;2022-08-03T07:34:35;43.90;37.10
3790;DHT22;1910;49.042;9.028;2022-08-03T07:37:00;44.10;36.20
3790;DHT22;1910;49.042;9.028;2022-08-03T07:39:26;45.20;35.90
3790;DHT22;1910;49.042;9.028;2022-08-03T07:41:51;43.30;34.90
3790;DHT22;1910;49.042;9.028;2022-08-03T07:44:18;44.40;36.60
3790;DHT22;1910;49.042;9.028;2022-08-03T07:46:44;45.70;35.80
3790;DHT22;1910;49.042;9.028;2022-08-03T07:49:09;44.30;35.40
3790;DHT22;1910;49.042;9.028;2022-08-03T07:54:01;43.50;36.80
3790;DHT22;1910;49.042;9.028;2022-08-03T07:56:27;45.30;35.40
3790;DHT22;1910;49.042;9.028;2022-08-03T07:58:53;47.20;31.50
3790;DHT22;1910;49.042;9.028;2022-08-03T08:01:19;47.10;31.90
3790;DHT22;1910;49.042;9.028;2022-08-03T08:03:45;46.00;30.70
3790;DHT22;1910;49.042;9.028;2022-08-03T08:06:11;46.30;31.40
3790;DHT22;1910;49.042;9.028;2022-08-03T08:08:40;45.90;32.60
3790;DHT22;1910;49.042;9.028;2022-08-03T08:11:05;45.50;32.80
3790;DHT22;1910;49.042;9.028;2022-08-03T08:13:31;44.30;32.40
3790;DHT22;1910;49.042;9.028;2022-08-03T08:15:57;45.30;33.60
3790;DHT22;1910;49.042;9.028;2022-08-03T08:18:23;45.70;32.20
3790;DHT22;1910;49.042;9.028;2022-08-03T08:20:49;46.20;31.30
3790;DHT22;1910;49.042;9.028;2022-08-03T08:23:15;46.30;31.60
3790;DHT22;1910;49.042;9.028;2022-08-03T08:25:47;46.10;31.30
3790;DHT22;1910;49.042;9.028;2022-08-03T08:28:13;46.90;31.30
3790;DHT22;1910;49.042;9.028;2022-08-03T08:30:38;47.40;30.60
3790;DHT22;1910;49.042;9.028;2022-08-03T08:33:05;46.80;31.10
3790;DHT22;1910;49.042;9.028;2022-08-03T08:35:31;46.30;30.90
3790;DHT22;1910;49.042;9.028;2022-08-03T08:37:59;46.00;30.80
3790;DHT22;1910;49.042;9.028;2022-08-03T08:40:26;45.60;31.40
3790;DHT22;1910;49.042;9.028;2022-08-03T08:42:52;45.20;32.30
3790;DHT22;1910;49.042;9.028;2022-08-03T08:47:46;44.00;31.50
3790;DHT22;1910;49.042;9.028;2022-08-03T08:50:13;43.20;32.30
3790;DHT22;1910;49.042;9.028;2022-08-03T08:52:42;43.20;31.90
3790;DHT22;1910;49.042;9.028;2022-08-03T08:55:14;42.70;31.50
3790;DHT22;1910;49.042;9.028;2022-08-03T08:57:47;42.50;31.90
3790;DHT22;1910;49.042;9.028;2022-08-03T09:00:13;42.30;31.30
3790;DHT22;1910;49.042;9.028;2022-08-03T09:02:40;41.80;31.40
3790;DHT22;1910;49.042;9.028;2022-08-03T09:05:14;42.40;31.50
3790;DHT22;1910;49.042;9.028;2022-08-03T09:07:41;41.90;32.90
3790;DHT22;1910;49.042;9.028;2022-08-03T09:10:08;42.20;32.70
3790;DHT22;1910;49.042;9.028;2022-08-03T09:12:52;41.80;30.90
3790;DHT22;1910;49.042;9.028;2022-08-03T09:15:29;41.40;31.60
3790;DHT22;1910;49.042;9.028;2022-08-03T09:17:58;41.50;31.30
3790;DHT22;1910;49.042;9.028;2022-08-03T09:20:27;41.20;32.30
3790;DHT22;1910;49.042;9.028;2022-08-03T09:23:03;41.30;31.60
3790;DHT22;1910;49.042;9.028;2022-08-03T09:25:34;40.70;31.90
3790;DHT22;1910;49.042;9.028;2022-08-03T09:28:26;40.70;33.50
3790;DHT22;1910;49.042;9.028;2022-08-03T09:30:59;40.60;32.20
3790;DHT22;1910;49.042;9.028;2022-08-03T09:33:24;40.70;32.70
3790;DHT22;1910;49.042;9.028;2022-08-03T09:35:50;41.30;32.00
3790;DHT22;1910;49.042;9.028;2022-08-03T09:38:16;41.10;32.80
3790;DHT22;1910;49.042;9.028;2022-08-03T09:40:45;40.60;32.30
3790;DHT22;1910;49.042;9.028;2022-08-03T09:43:11;40.90;33.00
3790;DHT22;1910;49.042;9.028;2022-08-03T09:45:38;41.80;31.60
3790;DHT22;1910;49.042;9.028;2022-08-03T09:48:25;41.80;32.20
3790;DHT22;1910;49.042;9.028;2022-08-03T09:50:58;42.20;31.40
3790;DHT22;1910;49.042;9.028;2022-08-03T09:53:25;43.20;30.50
3790;DHT22;1910;49.042;9.028;2022-08-03T09:55:54;42.60;30.90
3790;DHT22;1910;49.042;9.028;2022-08-03T09:58:21;42.10;31.50
3790;DHT22;1910;49.042;9.028;2022-08-03T10:03:19;41.30;32.80
3790;DHT22;1910;49.042;9.028;2022-08-03T10:05:47;41.80;32.10
3790;DHT22;1910;49.042;9.028;2022-08-03T10:08:14;41.60;31.60
3790;DHT22;1910;49.042;9.028;2022-08-03T10:10:45;41.40;32.20
3790;DHT22;1910;49.042;9.028;2022-08-03T10:13:16;41.40;32.00
3790;DHT22;1910;49.042;9.028;2022-08-03T10:15:42;41.70;32.00
3790;DHT22;1910;49.042;9.028;2022-08-03T10:18:08;42.10;32.30
3790;DHT22;1910;49.042;9.028;2022-08-03T10:20:44;41.30;32.30
3790;DHT22;1910;49.042;9.028;2022-08-03T10:23:10;41.80;32.20
3790;DHT22;1910;49.042;9.028;2022-08-03T10:25:37;41.20;31.90
3790;DHT22;1910;49.042;9.028;2022-08-03T10:28:05;40.50;33.30
3790;DHT22;1910;49.042;9.028;2022-08-03T10:30:33;40.90;32.70
3790;DHT22;1910;49.042;9.028;2022-08-03T10:33:04;40.80;32.80
3790;DHT22;1910;49.042;9.028;2022-08-03T10:35:33;39.80;32.90
3790;DHT22;1910;49.042;9.028;2022-08-03T10:38:01;39.90;35.50
3790;DHT22;1910;49.042;9.028;2022-08-03T10:40:29;37.00;36.60
3790;DHT22;1910;49.042;9.028;2022-08-03T10:42:58;34.90;38.00
3790;DHT22;1910;49.042;9.028;2022-08-03T10:45:26;34.60;41.60
3790;DHT22;1910;49.042;9.028;2022-08-03T10:47:52;34.30;41.10
3790;DHT22;1910;49.042;9.028;2022-08-03T10:50:22;33.80;40.90
3790;DHT22;1910;49.042;9.028;2022-08-03T10:52:59;34.10;42.70
3790;DHT22;1910;49.042;9.028;2022-08-03T11:01:14;34.00;42.40
3790;DHT22;1910;49.042;9.028;2022-08-03T11:06:18;34.20;41.10
3790;DHT22;1910;49.042;9.028;2022-08-03T11:08:49;34.20;40.20
3790;DHT22;1910;49.042;9.028;2022-08-03T11:14:11;33.90;41.10
3790;DHT22;1910;49.042;9.028;2022-08-03T11:17:06;34.00;40.90
3790;DHT22;1910;49.042;9.028;2022-08-03T11:19:43;33.80;41.40
3790;DHT22;1910;49.042;9.028;2022-08-03T11:22:09;33.90;41.80
3790;DHT22;1910;49.042;9.028;2022-08-03T11:29:57;34.90;40.60
3790;DHT22;1910;49.042;9.028;2022-08-03T11:35:30;35.20;40.50
3790;DHT22;1910;49.042;9.028;2022-08-03T11:43:09;34.60;39.70
3790;DHT22;1910;49.042;9.028;2022-08-03T11:45:35;34.40;40.00
3790;DHT22;1910;49.042;9.028;2022-08-03T11:48:13;34.70;39.50
3790;DHT22;1910;49.042;9.028;2022-08-03T11:50:40;34.80;38.90
3790;DHT22;1910;49.042;9.028;2022-08-03T11:53:07;34.90;38.20
3790;DHT22;1910;49.042;9.028;2022-08-03T11:55:38;36.20;39.90
3790;DHT22;1910;49.042;9.028;2022-08-03T11:58:06;35.00;39.00
3790;DHT22;1910;49.042;9.028;2022-08-03T12:00:32;35.00;37.90
3790;DHT22;1910;49.042;9.028;2022-08-03T12:03:18;34.70;38.00
3790;DHT22;1910;49.042;9.028;2022-08-03T12:05:49;35.30;39.50
3790;DHT22;1910;49.042;9.028;2022-08-03T12:10:56;34.30;39.10
3790;DHT22;1910;49.042;9.028;2022-08-03T12:13:23;34.60;39.60
3790;DHT22;1910;49.042;9.028;2022-08-03T12:15:52;34.00;40.10
3790;DHT22;1910;49.042;9.028;2022-08-03T12:18:19;36.00;41.50
3790;DHT22;1910;49.042;9.028;2022-08-03T12:20:48;33.40;40.50
3790;DHT22;1910;49.042;9.028;2022-08-03T12:23:15;35.40;41.60
3790;DHT22;1910;49.042;9.028;2022-08-03T12:25:47;32.40;40.40
3790;DHT22;1910;49.042;9.028;2022-08-03T12:28:27;34.20;41.00
3790;DHT22;1910;49.042;9.028;2022-08-03T12:31:22;34.40;41.00
3790;DHT22;1910;49.042;9.028;2022-08-03T12:34:00;36.10;42.20
3790;DHT22;1910;49.042;9.028;2022-08-03T12:36:31;33.50;39.40
3790;DHT22;1910;49.042;9.028;2022-08-03T12:39:07;36.20;40.80
3790;DHT22;1910;49.042;9.028;2022-08-03T12:41:39;34.20;40.20
3790;DHT22;1910;49.042;9.028;2022-08-03T12:44:08;35.70;40.70
3790;DHT22;1910;49.042;9.028;2022-08-03T12:46:37;34.10;40.50
3790;DHT22;1910;49.042;9.028;2022-08-03T12:49:09;35.70;41.60
3790;DHT22;1910;49.042;9.028;2022-08-03T12:51:37;34.30;39.40
3790;DHT22;1910;49.042;9.028;2022-08-03T12:54:24;34.30;39.70
3790;DHT22;1910;49.042;9.028;2022-08-03T12:59:25;35.10;40.00
3790;DHT22;1910;49.042;9.028;2022-08-03T13:01:51;34.80;39.20
3790;DHT22;1910;49.042;9.028;2022-08-03T13:04:34;35.00;39.00
3790;DHT22;1910;49.042;9.028;2022-08-03T13:07:02;34.70;39.30
3790;DHT22;1910;49.042;9.028;2022-08-03T13:09:52;34.70;39.60
3790;DHT22;1910;49.042;9.028;2022-08-03T13:12:23;34.90;39.60
3790;DHT22;1910;49.042;9.028;2022-08-03T13:14:55;35.10;39.40
3790;DHT22;1910;49.042;9.028;2022-08-03T13:17:21;35.50;39.60
3790;DHT22;1910;49.042;9.028;2022-08-03T13:19:47;35.30;39.30
3790;DHT22;1910;49.042;9.028;2022-08-03T13:22:22;36.00;38.80
3790;DHT22;1910;49.042;9.028;2022-08-03T13:24:51;34.90;38.80
3790;DHT22;1910;49.042;9.028;2022-08-03T13:27:17;36.20;39.30
3790;DHT22;1910;49.042;9.028;2022-08-03T13:29:48;34.90;38.70
3790;DHT22;1910;49.042;9.028;2022-08-03T13:32:15;34.40;39.20
3790;DHT22;1910;49.042;9.028;2022-08-03T13:34:41;34.60;39.70
3790;DHT22;1910;49.042;9.028;2022-08-03T13:37:09;34.90;39.70
3790;DHT22;1910;49.042;9.028;2022-08-03T13:39:39;36.60;40.70
3790;DHT22;1910;49.042;9.028;2022-08-03T13:42:05;35.30;39.00
3790;DHT22;1910;49.042;9.028;2022-08-03T13:44:31;35.40;37.90
3790;DHT22;1910;49.042;9.028;2022-08-03T13:46:57;35.70;38.70
3790;DHT22;1910;49.042;9.028;2022-08-03T13:49:28;37.20;39.40
3790;DHT22;1910;49.042;9.028;2022-08-03T13:51:54;34.30;38.20
3790;DHT22;1910;49.042;9.028;2022-08-03T13:54:33;34.00;38.80
3790;DHT22;1910;49.042;9.028;2022-08-03T13:57:02;35.00;39.50
3790;DHT22;1910;49.042;9.028;2022-08-03T13:59:28;35.00;39.50
3790;DHT22;1910;49.042;9.028;2022-08-03T14:01:53;36.10;40.30
3790;DHT22;1910;49.042;9.028;2022-08-03T14:04:20;34.80;39.00
3790;DHT22;1910;49.042;9.028;2022-08-03T14:06:46;34.70;39.20
3790;DHT22;1910;49.042;9.028;2022-08-03T14:09:12;34.10;37.40
3790;DHT22;1910;49.042;9.028;2022-08-03T14:11:42;36.80;38.00
3790;DHT22;1910;49.042;9.028;2022-08-03T14:14:08;35.50;37.20
3790;DHT22;1910;49.042;9.028;2022-08-03T14:16:34;35.50;38.30
3790;DHT22;1910;49.042;9.028;2022-08-03T14:19:02;35.50;38.00
3790;DHT22;1910;49.042;9.028;2022-08-03T14:21:32;36.50;38.20
3790;DHT22;1910;49.042;9.028;2022-08-03T14:24:04;35.60;37.90
3790;DHT22;1910;49.042;9.028;2022-08-03T14:26:32;37.10;39.20
3790;DHT22;1910;49.042;9.028;2022-08-03T14:29:00;35.20;38.60
3790;DHT22;1910;49.042;9.028;2022-08-03T14:31:26;36.10;39.30
3790;DHT22;1910;49.042;9.028;2022-08-03T14:33:52;36.10;39.00
3790;DHT22;1910;49.042;9.028;2022-08-03T14:36:22;35.20;38.20
3790;DHT22;1910;49.042;9.028;2022-08-03T14:38:50;34.90;38.40
3790;DHT22;1910;49.042;9.028;2022-08-03T14:41:15;35.00;38.20
3790;DHT22;1910;49.042;9.028;2022-08-03T14:43:41;36.60;39.20
3790;DHT22;1910;49.042;9.028;2022-08-03T14:46:06;35.60;38.20
3790;DHT22;1910;49.042;9.028;2022-08-03T14:48:34;35.60;38.20
3790;DHT22;1910;49.042;9.028;2022-08-03T14:51:06;35.60;37.40
3790;DHT22;1910;49.042;9.028;2022-08-03T14:53:33;35.40;38.10
3790;DHT22;1910;49.042;9.028;2022-08-03T14:55:59;35.40;37.90
3790;DHT22;1910;49.042;9.028;2022-08-03T14:58:30;34.40;37.30
3790;DHT22;1910;49.042;9.028;2022-08-03T15:00:56;35.40;37.90
3790;DHT22;1910;49.042;9.028;2022-08-03T15:03:23;35.40;37.40
3790;DHT22;1910;49.042;9.028;2022-08-03T15:05:55;35.30;37.80
3790;DHT22;1910;49.042;9.028;2022-08-03T15:08:24;35.10;37.70
3790;DHT22;1910;49.042;9.028;2022-08-03T15:10:52;34.90;38.00
3790;DHT22;1910;49.042;9.028;2022-08-03T15:13:21;34.90;38.40
3790;DHT22;1910;49.042;9.028;2022-08-03T15:15:48;34.90;38.40
3790;DHT22;1910;49.042;9.028;2022-08-03T15:18:14;35.00;38.60
3790;DHT22;1910;49.042;9.028;2022-08-03T15:20:41;35.10;38.80
3790;DHT22;1910;49.042;9.028;2022-08-03T15:23:06;35.40;38.70
3790;DHT22;1910;49.042;9.028;2022-08-03T15:25:32;35.40;38.60
3790;DHT22;1910;49.042;9.028;2022-08-03T15:27:57;35.00;37.80
3790;DHT22;1910;49.042;9.028;2022-08-03T15:30:23;35.00;38.10
3790;DHT22;1910;49.042;9.028;2022-08-03T15:32:49;36.40;39.10
3790;DHT22;1910;49.042;9.028;2022-08-03T15:35:14;35.30;38.20
3790;DHT22;1910;49.042;9.028;2022-08-03T15:37:40;35.50;38.60
3790;DHT22;1910;49.042;9.028;2022-08-03T15:40:10;34.80;38.20
3790;DHT22;1910;49.042;9.028;2022-08-03T15:42:35;34.90;39.10
3790;DHT22;1910;49.042;9.028;2022-08-03T15:45:02;35.00;38.80
3790;DHT22;1910;49.042;9.028;2022-08-03T15:47:29;35.00;38.60
3790;DHT22;1910;49.042;9.028;2022-08-03T15:49:54;35.00;38.60
3790;DHT22;1910;49.042;9.028;2022-08-03T15:52:22;36.70;39.50
3790;DHT22;1910;49.042;9.028;2022-08-03T15:54:53;35.20;38.80
3790;DHT22;1910;49.042;9.028;2022-08-03T15:57:18;34.70;37.60
3790;DHT22;1910;49.042;9.028;2022-08-03T15:59:44;35.10;37.80
3790;DHT22;1910;49.042;9.028;2022-08-03T16:02:10;34.70;37.90
3790;DHT22;1910;49.042;9.028;2022-08-03T16:04:35;35.50;38.40
3790;DHT22;1910;49.042;9.028;2022-08-03T16:07:01;35.00;38.00
3790;DHT22;1910;49.042;9.028;2022-08-03T16:09:27;35.80;39.00
3790;DHT22;1910;49.042;9.028;2022-08-03T16:11:54;35.10;38.10
3790;DHT22;1910;49.042;9.028;2022-08-03T16:14:19;35.00;38.60
3790;DHT22;1910;49.042;9.028;2022-08-03T16:16:45;34.40;38.60
3790;DHT22;1910;49.042;9.028;2022-08-03T16:21:36;34.60;38.30
3790;DHT22;1910;49.042;9.028;2022-08-03T16:24:02;35.40;39.50
3790;DHT22;1910;49.042;9.028;2022-08-03T16:26:29;34.60;38.80
3790;DHT22;1910;49.042;9.028;2022-08-03T16:28:55;34.50;38.20
3790;DHT22;1910;49.042;9.028;2022-08-03T16:31:20;34.50;38.60
3790;DHT22;1910;49.042;9.028;2022-08-03T16:33:47;34.60;39.00
3790;DHT22;1910;49.042;9.028;2022-08-03T16:36:13;34.70;38.00
3790;DHT22;1910;49.042;9.028;2022-08-03T16:38:39;34.70;38.00
3790;DHT22;1910;49.042;9.028;2022-08-03T16:41:06;34.70;37.90
3790;DHT22;1910;49.042;9.028;2022-08-03T16:43:32;35.30;38.30
3790;DHT22;1910;49.042;9.028;2022-08-03T16:46:01;34.70;38.00
3790;DHT22;1910;49.042;9.028;2022-08-03T16:48:28;34.70;38.10
3790;DHT22;1910;49.042;9.028;2022-08-03T16:50:59;34.60;37.90
3790;DHT22;1910;49.042;9.028;2022-08-03T16:53:25;35.30;38.50
3790;DHT22;1910;49.042;9.028;2022-08-03T16:55:50;34.70;38.00
3790;DHT22;1910;49.042;9.028;2022-08-03T16:58:20;35.00;38.30
3790;DHT22;1910;49.042;9.028;2022-08-03T17:00:56;34.40;38.40
3790;DHT22;1910;49.042;9.028;2022-08-03T17:03:26;34.40;37.70